1969 Tropical Cyclone NOT_NAMED (1969098S11156)


IBTrACS version v04r00. Visit IBTrACS website for data access.
Please direct all questions to the IBTrACS Q and A forum

Storm track - Intensity - Wind Radii - Intensity Data - Source Data - All data

Summary Information

Storm ID 1969098S11156
Start Apr 8 11Z
Max Intensity 35 kt (Apr 12 00Z), 996 mb (Apr 12 21Z)
End Apr 15 23Z
ATCF IDs ,SH331969
Track status Best track data.

Storm track plot

Map of storm track

Intensity plots

Map of storm track

Radial wind information

No radial wind information for this storm


Position and Intensity Table

BASIN ISO_TIME_________ NATURE LAT LON WMO PRES USA WIND BOM PRES DS824 WIND DS824 PRES TD9636 WIND
degrees north degrees east mb kts mb kts mb kts
SP 1969-04-08 11:00:00 NR -11.30 156.00 1007 1007 10
SP 12:00:00 TS -11.29 155.98 10 1006 15 1007 10
SP 15:00:00 TS -11.25 155.89 12 1005 17 1006 11
SP 17:00:00 TS -11.21 155.83 1005 14 1005 19 1005 12
SP 18:00:00 TS -11.19 155.80 15 1005 20 1005 12
SP 20:00:00 TS -11.15 155.76 1005 15 1005 18 1005 13
SP 21:00:00 TS -11.14 155.74 15 1005 17 1005 14
SP 23:00:00 TS -11.11 155.71 1006 15 1006 15 1005 15
SP 1969-04-09 00:00:00 TS -11.09 155.69 15 1005 15 1006 14
SP 02:00:00 TS -11.05 155.63 1005 13 1005 16 1005 12
SP 03:00:00 TS -11.03 155.59 12 1004 17 1005 11
SP 05:00:00 TS -11.01 155.52 1004 10 1004 19 1004 10
SP 06:00:00 TS -10.99 155.49 10 1004 20 1004 9
SP 08:00:00 TS -10.97 155.42 1005 8 1005 18 1004 7
SP 09:00:00 TS -10.95 155.39 7 1005 17 1005 6
SP 11:00:00 TS -10.91 155.32 1006 5 1006 15 1005 5
SP 12:00:00 TS -10.90 155.29 5 1005 15 1006 6
SP 14:00:00 TS -10.88 155.24 1005 8 1005 18 1004 10
SP 15:00:00 TS -10.87 155.21 10 1004 20 1004 11
SP 17:00:00 TS -10.85 155.14 1003 13 1003 23 1003 15
SP 18:00:00 TS -10.85 155.10 15 1003 25 1003 16
SP 20:00:00 TS -10.86 155.02 1003 18 1003 23 1003 20
SP 21:00:00 TS -10.87 154.99 20 1003 22 1003 21
SP 23:00:00 TS -10.89 154.92 1004 23 1004 20 1003 25
SP 1969-04-10 00:00:00 TS -10.90 154.89 25 1003 20 1004 25
SP 02:00:00 TS -10.94 154.82 1003 26 1003 23 1002 26
SP 03:00:00 TS -10.97 154.79 27 1002 25 1002 26
SP 05:00:00 TS -11.03 154.72 1001 29 1001 28 1001 27
SP 06:00:00 TS -11.06 154.69 30 1001 30 1001 27
SP 08:00:00 TS -11.11 154.62 1001 30 1001 30 1001 28
SP 09:00:00 TS -11.14 154.59 30 1001 30 1001 29
SP 11:00:00 TS -11.19 154.52 1001 30 1001 30 1001 30
SP 12:00:00 TS -11.21 154.49 30 1001 30 1001 28
SP 14:00:00 TS -11.25 154.42 1001 26 1001 30 1001 26
SP 15:00:00 TS -11.27 154.39 25 1001 30 1001 25
SP 17:00:00 TS -11.33 154.33 1001 21 1001 30 1001 22
SP 18:00:00 TS -11.36 154.30 20 1001 30 1001 21
SP 21:00:00 TS -11.44 154.25 17 1001 30 1001 17
SP 23:00:00 TS -11.48 154.21 1001 15 1001 30 1001 15
SP 1969-04-11 00:00:00 TS -11.51 154.19 15 1001 30 1001 15
SP 02:00:00 TS -11.57 154.13 1001 16 1001 30 1000 17
SP 03:00:00 TS -11.61 154.09 17 1000 30 1000 18
SP 05:00:00 TS -11.67 154.03 1000 19 1000 30 1000 20
SP 06:00:00 TS -11.70 154.00 20 1000 30 1000 20
SP 08:00:00 TS -11.75 153.97 1000 21 1000 30 1000 22
SP 09:00:00 TS -11.76 153.95 22 1000 30 1000 23
SP 11:00:00 TS -11.79 153.91 1000 24 1000 30 1000 25
SP 12:00:00 TS -11.81 153.89 25 1000 30 1000 24
SP 14:00:00 TS -11.87 153.83 1000 23 1000 30 1000 23
SP 15:00:00 TS -11.91 153.80 22 1000 30 1000 23
SP 17:00:00 TS -11.98 153.73 1000 20 1000 30 1000 22
SP 18:00:00 TS -12.01 153.70 20 999 30 1000 22
SP 20:00:00 TS -12.07 153.66 999 20 999 31 999 21
SP 21:00:00 TS -12.11 153.65 20 998 32 999 20
SP 23:00:00 TS -12.18 153.62 998 20 998 34 998 20
SP 1969-04-12 00:00:00 TS -12.21 153.59 20 998 35 998 20
SP 02:00:00 TS -12.30 153.51 998 21 998 35 998 21
SP 03:00:00 TS -12.34 153.47 22 998 35 998 21
SP 05:00:00 TS -12.44 153.37 998 24 998 35 998 22
SP 06:00:00 TS -12.49 153.32 25 998 35 998 22
SP 08:00:00 TS -12.58 153.21 998 25 998 33 998 23
SP 09:00:00 TS -12.61 153.17 25 998 32 998 24
SP 11:00:00 TS -12.69 153.07 999 25 999 30 998 25
SP 12:00:00 TS -12.74 153.01 25 999 30 999 25
SP 14:00:00 TS -12.86 152.86 999 25 999 31 998 25
SP 15:00:00 TS -12.91 152.80 25 998 32 998 25
SP 17:00:00 TS -13.02 152.67 998 25 998 34 998 25
SP 18:00:00 TS -13.09 152.61 25 997 35 998 25
SP 20:00:00 TS -13.22 152.48 997 25 997 35 997 25
SP 21:00:00 TS -13.28 152.42 25 996 35 997 25
SP 23:00:00 TS -13.42 152.32 996 25 996 35 996 25
SP 1969-04-13 00:00:00 TS -13.49 152.29 25 996 35 996 25
SP 02:00:00 TS -13.63 152.25 996 25 996 35 996 25
SP 03:00:00 TS -13.70 152.23 25 996 35 996 25
SP 05:00:00 TS -13.86 152.20 996 25 996 35 996 25
SP 06:00:00 TS -13.94 152.19 25 996 35 996 25
SP 08:00:00 TS -14.09 152.19 997 25 997 35 996 25
SP 09:00:00 TS -14.16 152.19 25 997 35 997 25
SP 11:00:00 TS -14.32 152.19 998 25 998 35 997 25
SP 12:00:00 TS -14.39 152.21 25 998 35 998 25
SP 14:00:00 TS -14.52 152.24 998 25 998 35 998 25
SP 15:00:00 TS -14.59 152.25 25 998 35 998 25
SP 17:00:00 TS -14.73 152.28 998 25 998 35 998 25
SP 18:00:00 TS -14.80 152.29 25 998 35 998 25
SP 20:00:00 TS -14.97 152.29 998 25 998 35 998 25
SP 21:00:00 TS -15.05 152.29 25 998 35 998 25
SP 23:00:00 TS -15.21 152.30 998 25 998 35 998 25
SP 1969-04-14 00:00:00 TS -15.29 152.31 25 998 35 998 25
SP 02:00:00 TS -15.47 152.34 999 26 999 33 998 26
SP 03:00:00 TS -15.57 152.35 27 999 32 998 26
SP 05:00:00 TS -15.74 152.38 999 29 999 30 998 27
SP 06:00:00 TS -15.83 152.39 30 999 30 999 27
SP 08:00:00 TS -15.98 152.42 999 30 999 30 999 28
SP 09:00:00 TS -16.06 152.43 30 999 30 999 29
SP 11:00:00 TS -16.21 152.48 1000 30 1000 30 999 30
SP 12:00:00 TS -16.29 152.51 30 1000 30 1000 29
SP 14:00:00 TS -16.43 152.56 1000 28 1000 30 1000 27
SP 15:00:00 TS -16.50 152.59 27 1000 30 1000 26
SP 17:00:00 TS -16.66 152.66 1000 25 1000 30 1000 25
SP 18:00:00 TS -16.76 152.73 25 1000 30 1000 24
SP 20:00:00 TS -16.98 152.86 1000 23 1000 30 1000 22
SP 21:00:00 TS -17.10 152.94 22 1000 30 1000 21
SP 23:00:00 TS -17.38 153.18 1001 20 1001 30 1000 20
SP 1969-04-15 00:00:00 TS -17.55 153.36 20 1001 30 1001 20
SP 02:00:00 TS -17.96 153.87 1001 20 1001 30 1001 20
SP 03:00:00 TS -18.17 154.15 20 1001 30 1001 20
SP 05:00:00 TS -18.61 154.76 1001 20 1001 30 1001 20
SP 06:00:00 TS -18.86 155.09 20 1001 30 1001 20
SP 08:00:00 TS -19.35 155.74 1001 20 1001 28 1001 20
SP 09:00:00 TS -19.60 156.07 20 1001 27 1001 20
SP 11:00:00 TS -20.07 156.66 1002 20 1002 25 1001 20
SP 12:00:00 TS -20.27 156.88 20 1002 25 1002 20
SP 14:00:00 TS -20.62 157.21 1002 20 1002 25 1002 21
SP 15:00:00 TS -20.79 157.35 20 1002 25 1002 21
SP 17:00:00 TS -21.11 157.57 1002 20 1002 25 1002 22
SP 18:00:00 TS -21.26 157.67 20 1002 25 1002 22
SP 20:00:00 NR -21.58 157.83 1002 1002 23
SP 21:00:00 NR -21.75 157.89 1002 24
SP 23:00:00 NR -22.10 158.00 1003 1003 25

Source Information

Agency Information
USA bsh331969.txt
TOKYO
CMA
HKO
NEWDELHI
REUNION
BOM IDCKMSTM0S.csv:Line=5329:UNNAMED
NADI
WELLINGTON
DS824 aus_area.dat:439:NOT NAMED
TD9636 cons_worldwide_trop_cyclone_18710101-19891231-006:Line=8251
TD9635
NEUMANN
MLC

All available IBTrACS Data

SEASON BASIN SUBBASIN ISO_TIME_________ NATURE LAT LON WMO PRES WMO AGENCY DIST2LAND LANDFALL IFLAG USA AGENCY USA ATCF_ID USA LAT USA LON USA WIND USA SSHS BOM LAT BOM LON BOM PRES DS824 LAT DS824 LON DS824 STAGE DS824 WIND DS824 PRES TD9636 LAT TD9636 LON TD9636 STAGE TD9636 WIND STORM SPEED STORM DIR
Year degrees north degrees east mb km km degrees north degrees east kts 1 degrees north degrees east mb degrees north degrees east kts mb degrees north degrees east kts kts degrees
1969 SP EA 1969-04-08 11:00:00 NR -11.30 156.00 1007 bom 360 360 ______O___O___ -1 -11.30 156.00 1007 -11.30 156.00 1 10 1 0
1969 SP EA 12:00:00 TS -11.29 155.98 360 360 O_____P__OP___ jtwc_sh SH331969 -11.30 156.00 10 -1 -11.29 155.97 1006 -11.30 156.00 TC 15 1007 -11.28 155.98 1 10 2 295
1969 SP EA 15:00:00 TS -11.25 155.89 354 354 P_____P__PP___ SH331969 -11.25 155.89 12 -1 -11.25 155.87 1005 -11.25 155.89 TC 17 1006 -11.24 155.91 1 11 2 299
1969 SP EA 17:00:00 TS -11.21 155.83 1005 bom 359 359 P_____O__PP___ SH331969 -11.22 155.82 14 -1 -11.20 155.80 1005 -11.22 155.82 TC 19 1005 -11.21 155.86 1 12 2 303
1969 SP EA 18:00:00 TS -11.19 155.80 359 359 O_____P__OP___ jtwc_sh SH331969 -11.20 155.80 15 -1 -11.16 155.76 1005 -11.20 155.80 TC 20 1005 -11.19 155.84 1 12 2 312
1969 SP EA 20:00:00 TS -11.15 155.76 1005 bom 359 349 P_____O__PP___ SH331969 -11.17 155.76 15 -1 -11.10 155.70 1005 -11.17 155.76 TC 18 1005 -11.15 155.78 1 13 2 313
1969 SP EA 21:00:00 TS -11.14 155.74 354 354 P_____P__PP___ SH331969 -11.15 155.75 15 -1 -11.10 155.70 1005 -11.15 155.75 TC 17 1005 -11.14 155.76 1 14 1 317
1969 SP EA 23:00:00 TS -11.11 155.71 1006 bom 354 354 P_____O__PO___ SH331969 -11.12 155.72 15 -1 -11.10 155.70 1006 -11.12 155.72 TC 15 1005 -11.10 155.70 1 15 1 313
1969 SP EA 1969-04-09 00:00:00 TS -11.09 155.69 354 354 O_____P__OP___ jtwc_sh SH331969 -11.10 155.70 15 -1 -11.07 155.67 1005 -11.10 155.70 TC 15 1006 -11.08 155.67 1 14 2 306
1969 SP EA 02:00:00 TS -11.05 155.63 1005 bom 349 349 P_____O__PP___ SH331969 -11.07 155.64 13 -1 -11.00 155.60 1005 -11.07 155.64 TC 16 1005 -11.04 155.61 1 12 2 301
1969 SP EA 03:00:00 TS -11.03 155.59 349 349 P_____P__PP___ SH331969 -11.05 155.61 12 -1 -10.99 155.57 1004 -11.05 155.61 TC 17 1005 -11.02 155.57 1 11 2 292
1969 SP EA 05:00:00 TS -11.01 155.52 1004 bom 355 355 P_____O__PP___ SH331969 -11.02 155.54 10 -1 -11.00 155.50 1004 -11.02 155.54 TC 19 1004 -10.99 155.51 1 10 2 290
1969 SP EA 06:00:00 TS -10.99 155.49 355 355 O_____P__OP___ jtwc_sh SH331969 -11.00 155.50 10 -1 -11.01 155.47 1004 -11.00 155.50 TC 20 1004 -10.97 155.47 1 9 2 293
1969 SP EA 08:00:00 TS -10.97 155.42 1005 bom 361 361 P_____O__PP___ SH331969 -10.97 155.43 8 -1 -11.00 155.40 1005 -10.96 155.43 TC 18 1004 -10.94 155.40 1 7 2 297
1969 SP EA 09:00:00 TS -10.95 155.39 351 351 P_____P__PP___ SH331969 -10.95 155.40 7 -1 -10.97 155.36 1005 -10.94 155.40 TC 17 1005 -10.92 155.37 1 6 2 301
1969 SP EA 11:00:00 TS -10.91 155.32 1006 bom 358 358 P_____O__PO___ SH331969 -10.92 155.33 5 -1 -10.90 155.30 1006 -10.91 155.33 TC 15 1005 -10.90 155.30 1 5 2 299
1969 SP EA 12:00:00 TS -10.90 155.29 358 358 O_____P__OP___ jtwc_sh SH331969 -10.90 155.30 5 -1 -10.89 155.30 1005 -10.90 155.30 TC 15 1006 -10.89 155.27 1 6 2 292
1969 SP EA 14:00:00 TS -10.88 155.24 1005 bom 364 364 P_____O__PP___ SH331969 -10.86 155.23 8 -1 -10.90 155.30 1005 -10.89 155.23 TC 18 1004 -10.87 155.20 1 10 2 290
1969 SP EA 15:00:00 TS -10.87 155.21 364 364 P_____P__PP___ SH331969 -10.83 155.20 10 -1 -10.90 155.28 1004 -10.89 155.20 TC 20 1004 -10.87 155.17 1 11 2 283
1969 SP EA 17:00:00 TS -10.85 155.14 1003 bom 371 371 P_____O__PP___ SH331969 -10.81 155.13 13 -1 -10.90 155.20 1003 -10.90 155.13 TC 23 1003 -10.86 155.10 1 15 2 277
1969 SP EA 18:00:00 TS -10.85 155.10 371 371 O_____P__OP___ jtwc_sh SH331969 -10.80 155.10 15 -1 -10.90 155.14 1003 -10.90 155.10 TC 25 1003 -10.86 155.07 1 16 2 268
1969 SP EA 20:00:00 TS -10.86 155.02 1003 bom 378 378 P_____O__PP___ SH331969 -10.81 155.03 18 -1 -10.90 155.00 1003 -10.89 155.03 TC 23 1003 -10.87 155.00 1 20 2 264
1969 SP EA 21:00:00 TS -10.87 154.99 378 378 P_____P__PP___ SH331969 -10.83 155.00 20 -1 -10.90 154.96 1003 -10.89 155.00 TC 22 1003 -10.88 154.97 1 21 2 253
1969 SP EA 23:00:00 TS -10.89 154.92 1004 bom 385 385 P_____O__PO___ SH331969 -10.87 154.93 23 -1 -10.90 154.90 1004 -10.89 154.93 TC 20 1003 -10.90 154.90 1 25 2 249
1969 SP EA 1969-04-10 00:00:00 TS -10.90 154.89 385 385 O_____P__OP___ jtwc_sh SH331969 -10.90 154.90 25 -1 -10.89 154.87 1003 -10.90 154.90 TC 20 1004 -10.91 154.87 1 25 2 242
1969 SP EA 02:00:00 TS -10.94 154.82 1003 bom 392 392 P_____O__PP___ SH331969 -10.96 154.83 26 -1 -10.90 154.80 1003 -10.92 154.83 TC 23 1002 -10.95 154.80 1 26 2 237
1969 SP EA 03:00:00 TS -10.97 154.79 400 400 P_____P__PP___ SH331969 -11.00 154.80 27 -1 -10.93 154.77 1002 -10.93 154.80 TC 25 1002 -10.98 154.76 1 26 3 228
1969 SP EA 05:00:00 TS -11.03 154.72 1001 bom 408 408 P_____O__PP___ SH331969 -11.07 154.73 29 -1 -11.00 154.70 1001 -10.97 154.73 TC 28 1001 -11.03 154.69 1 27 3 226
1969 SP EA 06:00:00 TS -11.06 154.69 416 416 O_____P__OP___ jtwc_sh SH331969 -11.10 154.70 30 -1 -11.03 154.67 1001 -11.00 154.70 TC 30 1001 -11.06 154.66 1 27 3 229
1969 SP EA 08:00:00 TS -11.11 154.62 1001 bom 423 423 P_____O__PP___ SH331969 -11.14 154.63 30 -1 -11.10 154.60 1001 -11.06 154.63 TC 30 1001 -11.11 154.59 1 28 3 231
1969 SP EA 09:00:00 TS -11.14 154.59 423 420 P_____P__PP___ SH331969 -11.15 154.60 30 -1 -11.14 154.57 1001 -11.10 154.60 TC 30 1001 -11.14 154.56 1 29 2 232
1969 SP EA 11:00:00 TS -11.19 154.52 1001 bom 420 420 P_____O__PO___ SH331969 -11.18 154.53 30 -1 -11.20 154.50 1001 -11.17 154.53 TC 30 1001 -11.20 154.50 1 30 2 234
1969 SP EA 12:00:00 TS -11.21 154.49 420 409 O_____P__OP___ jtwc_sh SH331969 -11.20 154.50 30 -1 -11.20 154.47 1001 -11.20 154.50 TC 30 1001 -11.22 154.47 1 28 2 236
1969 SP EA 14:00:00 TS -11.25 154.42 1001 bom 409 409 P_____O__PP___ SH331969 -11.26 154.43 26 -1 -11.20 154.40 1001 -11.24 154.43 TC 30 1001 -11.27 154.42 1 26 2 234
1969 SP EA 15:00:00 TS -11.27 154.39 411 401 P_____P__PP___ SH331969 -11.30 154.39 25 -1 -11.22 154.36 1001 -11.25 154.39 TC 30 1001 -11.30 154.39 1 25 3 229
1969 SP EA 17:00:00 TS -11.33 154.33 1001 bom 401 401 P_____O__PP___ SH331969 -11.37 154.33 21 -1 -11.30 154.30 1001 -11.28 154.33 TC 30 1001 -11.35 154.34 1 22 2 226
1969 SP EA 18:00:00 TS -11.36 154.30 403 392 O_____P__OP___ jtwc_sh SH331969 -11.40 154.30 20 -1 -11.33 154.28 1001 -11.30 154.30 TC 30 1001 -11.37 154.32 1 21 2 220
1969 SP EA 21:00:00 TS -11.44 154.25 392 392 P_____P__PP___ SH331969 -11.45 154.25 17 -1 -11.43 154.24 1001 -11.39 154.25 TC 30 1001 -11.45 154.25 1 17 2 216
1969 SP EA 23:00:00 TS -11.48 154.21 1001 bom 395 395 P_____O__PO___ SH331969 -11.48 154.22 15 -1 -11.50 154.20 1001 -11.46 154.22 TC 30 1001 -11.50 154.20 1 15 2 218
1969 SP EA 1969-04-11 00:00:00 TS -11.51 154.19 395 387 O_____P__OP___ jtwc_sh SH331969 -11.50 154.20 15 -1 -11.53 154.17 1001 -11.50 154.20 TC 30 1001 -11.52 154.17 1 15 2 221
1969 SP EA 02:00:00 TS -11.57 154.13 1001 bom 387 387 P_____O__PP___ SH331969 -11.56 154.14 16 -1 -11.60 154.10 1001 -11.57 154.14 TC 30 1000 -11.57 154.12 1 17 3 226
1969 SP EA 03:00:00 TS -11.61 154.09 387 380 P_____P__PP___ SH331969 -11.60 154.10 17 -1 -11.63 154.06 1000 -11.61 154.10 TC 30 1000 -11.59 154.10 1 18 3 225
1969 SP EA 05:00:00 TS -11.67 154.03 1000 bom 380 380 P_____O__PP___ SH331969 -11.67 154.03 19 -1 -11.70 154.00 1000 -11.67 154.03 TC 30 1000 -11.64 154.05 1 20 3 224
1969 SP EA 06:00:00 TS -11.70 154.00 380 380 O_____P__OP___ jtwc_sh SH331969 -11.70 154.00 20 -1 -11.74 154.00 1000 -11.70 154.00 TC 30 1000 -11.67 154.02 1 20 2 220
1969 SP EA 08:00:00 TS -11.75 153.97 1000 bom 380 380 P_____O__PP___ SH331969 -11.74 153.96 21 -1 -11.80 154.00 1000 -11.74 153.96 TC 30 1000 -11.72 153.97 1 22 2 223
1969 SP EA 09:00:00 TS -11.76 153.95 384 374 P_____P__PP___ SH331969 -11.75 153.95 22 -1 -11.80 153.97 1000 -11.75 153.95 TC 30 1000 -11.74 153.95 1 23 1 231
1969 SP EA 11:00:00 TS -11.79 153.91 1000 bom 374 374 P_____O__PO___ SH331969 -11.78 153.92 24 -1 -11.80 153.90 1000 -11.78 153.92 TC 30 1000 -11.80 153.90 1 25 2 234
1969 SP EA 12:00:00 TS -11.81 153.89 374 368 O_____P__OP___ jtwc_sh SH331969 -11.80 153.90 25 -1 -11.83 153.87 1000 -11.80 153.90 TC 30 1000 -11.83 153.88 1 24 2 224
1969 SP EA 14:00:00 TS -11.87 153.83 1000 bom 368 368 P_____O__PP___ SH331969 -11.86 153.84 23 -1 -11.90 153.80 1000 -11.86 153.84 TC 30 1000 -11.89 153.83 1 23 3 223
1969 SP EA 15:00:00 TS -11.91 153.80 368 362 P_____P__PP___ SH331969 -11.89 153.80 22 -1 -11.93 153.77 1000 -11.89 153.80 TC 30 1000 -11.92 153.81 1 23 3 224
1969 SP EA 17:00:00 TS -11.98 153.73 1000 bom 362 362 P_____O__PP___ SH331969 -11.96 153.73 20 -1 -12.00 153.70 1000 -11.96 153.73 TC 30 1000 -11.98 153.76 1 22 3 223
1969 SP EA 18:00:00 TS -12.01 153.70 362 362 O_____P__OP___ jtwc_sh SH331969 -12.00 153.70 20 -1 -12.03 153.66 999 -12.00 153.70 TC 30 1000 -12.02 153.74 1 22 2 213
1969 SP EA 20:00:00 TS -12.07 153.66 999 bom 367 358 P_____O__PP___ SH331969 -12.06 153.67 20 -1 -12.10 153.60 999 -12.06 153.67 TC 31 999 -12.09 153.69 1 21 2 210
1969 SP EA 21:00:00 TS -12.11 153.65 358 358 P_____P__PP___ SH331969 -12.09 153.66 20 -1 -12.13 153.60 998 -12.09 153.66 TC 32 999 -12.12 153.66 1 20 2 204
1969 SP EA 23:00:00 TS -12.18 153.62 998 bom 363 363 P_____O__PO___ SH331969 -12.16 153.63 20 -1 -12.20 153.60 998 -12.16 153.63 TC 34 998 -12.20 153.60 1 20 2 206
1969 SP EA 1969-04-12 00:00:00 TS -12.21 153.59 363 359 O_____P__OP___ jtwc_sh SH331969 -12.20 153.60 20 -1 -12.23 153.57 998 -12.20 153.60 TC 35 998 -12.24 153.57 1 20 3 221
1969 SP EA 02:00:00 TS -12.30 153.51 998 bom 359 359 P_____O__PP___ SH331969 -12.30 153.52 21 -1 -12.30 153.50 998 -12.29 153.52 TC 35 998 -12.31 153.50 1 21 4 223
1969 SP EA 03:00:00 TS -12.34 153.47 359 356 P_____P__PP___ SH331969 -12.35 153.47 22 -1 -12.33 153.47 998 -12.34 153.47 TC 35 998 -12.35 153.47 1 21 4 225
1969 SP EA 05:00:00 TS -12.44 153.37 998 bom 356 354 P_____O__PP___ SH331969 -12.45 153.36 24 -1 -12.40 153.40 998 -12.45 153.36 TC 35 998 -12.43 153.39 1 22 4 226
1969 SP EA 06:00:00 TS -12.49 153.32 354 345 O_____P__OP___ jtwc_sh SH331969 -12.50 153.30 25 -1 -12.46 153.34 998 -12.50 153.30 TC 35 998 -12.47 153.35 1 22 4 228
1969 SP EA 08:00:00 TS -12.58 153.21 998 bom 352 352 P_____O__PP___ SH331969 -12.56 153.21 25 -1 -12.60 153.20 998 -12.60 153.21 TC 33 998 -12.56 153.25 1 23 4 228
1969 SP EA 09:00:00 TS -12.61 153.17 352 344 P_____P__PP___ SH331969 -12.59 153.16 25 -1 -12.64 153.17 998 -12.65 153.16 TC 32 998 -12.60 153.21 1 24 4 230
1969 SP EA 11:00:00 TS -12.69 153.07 999 bom 351 343 P_____O__PO___ SH331969 -12.66 153.06 25 -1 -12.70 153.10 999 -12.75 153.06 TC 30 998 -12.70 153.10 1 25 4 231
1969 SP EA 12:00:00 TS -12.74 153.01 343 343 O_____P__OP___ jtwc_sh SH331969 -12.70 153.00 25 -1 -12.76 153.00 999 -12.80 153.00 TC 30 999 -12.75 153.03 1 25 5 232
1969 SP EA 14:00:00 TS -12.86 152.86 999 bom 351 344 P_____O__PP___ SH331969 -12.82 152.87 25 -1 -12.90 152.80 999 -12.89 152.87 TC 31 998 -12.85 152.89 1 25 5 231
1969 SP EA 15:00:00 TS -12.91 152.80 344 344 P_____P__PP___ SH331969 -12.89 152.80 25 -1 -12.94 152.76 998 -12.94 152.80 TC 32 998 -12.91 152.82 1 25 5 227
1969 SP EA 17:00:00 TS -13.02 152.67 998 bom 345 345 P_____O__PP___ SH331969 -13.03 152.66 25 -1 -13.00 152.70 998 -13.04 152.66 TC 34 998 -13.02 152.67 1 25 5 226
1969 SP EA 18:00:00 TS -13.09 152.61 348 348 O_____P__OP___ jtwc_sh SH331969 -13.10 152.60 25 -1 -13.06 152.64 997 -13.10 152.60 TC 35 998 -13.08 152.60 1 25 5 224
1969 SP EA 20:00:00 TS -13.22 152.48 997 bom 350 350 P_____O__PP___ SH331969 -13.23 152.48 25 -1 -13.20 152.50 997 -13.22 152.48 TC 35 997 -13.20 152.46 1 25 5 223
1969 SP EA 21:00:00 TS -13.28 152.42 354 354 P_____P__PP___ SH331969 -13.30 152.43 25 -1 -13.27 152.42 996 -13.28 152.43 TC 35 997 -13.27 152.40 1 25 5 218
1969 SP EA 23:00:00 TS -13.42 152.32 996 bom 358 358 P_____O__PO___ SH331969 -13.43 152.34 25 -1 -13.40 152.30 996 -13.43 152.34 TC 35 996 -13.40 152.30 1 25 5 212
1969 SP EA 1969-04-13 00:00:00 TS -13.49 152.29 368 368 O_____P__OP___ jtwc_sh SH331969 -13.50 152.30 25 -1 -13.46 152.29 996 -13.50 152.30 TC 35 996 -13.47 152.27 1 25 4 199
1969 SP EA 02:00:00 TS -13.63 152.25 996 bom 378 373 P_____O__PP___ SH331969 -13.63 152.25 25 -1 -13.60 152.30 996 -13.66 152.25 TC 35 996 -13.61 152.22 1 25 5 194
1969 SP EA 03:00:00 TS -13.70 152.23 383 383 P_____P__PP___ SH331969 -13.69 152.23 25 -1 -13.70 152.27 996 -13.75 152.23 TC 35 996 -13.68 152.20 1 25 5 195
1969 SP EA 05:00:00 TS -13.86 152.20 996 bom 403 403 P_____O__PP___ SH331969 -13.83 152.21 25 -1 -13.90 152.20 996 -13.92 152.21 TC 35 996 -13.83 152.18 1 25 5 190
1969 SP EA 06:00:00 TS -13.94 152.19 403 403 O_____P__OP___ jtwc_sh SH331969 -13.90 152.20 25 -1 -13.97 152.19 996 -14.00 152.20 TC 35 996 -13.91 152.18 1 25 5 0
1969 SP EA 08:00:00 TS -14.09 152.19 997 bom 424 424 P_____O__PP___ SH331969 -14.06 152.19 25 -1 -14.10 152.20 997 -14.14 152.19 TC 35 996 -14.07 152.18 1 25 5 185
1969 SP EA 09:00:00 TS -14.16 152.19 434 434 P_____P__PP___ SH331969 -14.15 152.18 25 -1 -14.17 152.19 997 -14.21 152.18 TC 35 997 -14.14 152.19 1 25 5 0
1969 SP EA 11:00:00 TS -14.32 152.19 998 bom 445 445 P_____O__PO___ SH331969 -14.32 152.19 25 -1 -14.30 152.20 998 -14.34 152.19 TC 35 997 -14.30 152.20 1 25 5 0
1969 SP EA 12:00:00 TS -14.39 152.21 455 455 O_____P__OP___ jtwc_sh SH331969 -14.40 152.20 25 -1 -14.37 152.23 998 -14.40 152.20 TC 35 998 -14.37 152.20 1 25 4 169
1969 SP EA 14:00:00 TS -14.52 152.24 998 bom 466 466 P_____O__PP___ SH331969 -14.54 152.23 25 -1 -14.50 152.30 998 -14.53 152.23 TC 35 998 -14.52 152.21 1 25 4 169
1969 SP EA 15:00:00 TS -14.59 152.25 480 480 P_____P__PP___ SH331969 -14.60 152.25 25 -1 -14.56 152.31 998 -14.59 152.25 TC 35 998 -14.59 152.21 1 25 4 169
1969 SP EA 17:00:00 TS -14.73 152.28 998 bom 490 490 P_____O__PP___ SH331969 -14.73 152.29 25 -1 -14.70 152.30 998 -14.73 152.29 TC 35 998 -14.74 152.23 1 25 4 170
1969 SP EA 18:00:00 TS -14.80 152.29 501 501 O_____P__OP___ jtwc_sh SH331969 -14.80 152.30 25 -1 -14.80 152.30 998 -14.80 152.30 TC 35 998 -14.82 152.24 1 25 5 0
1969 SP EA 20:00:00 TS -14.97 152.29 998 bom 522 522 P_____O__PP___ SH331969 -14.96 152.30 25 -1 -15.00 152.30 998 -14.95 152.30 TC 35 998 -14.97 152.26 1 25 5 178
1969 SP EA 21:00:00 TS -15.05 152.29 522 522 P_____P__PP___ SH331969 -15.04 152.30 25 -1 -15.07 152.29 998 -15.03 152.30 TC 35 998 -15.04 152.27 1 25 5 174
1969 SP EA 23:00:00 TS -15.21 152.30 998 bom 543 543 P_____O__PO___ SH331969 -15.21 152.30 25 -1 -15.20 152.30 998 -15.21 152.30 TC 35 998 -15.20 152.30 1 25 5 0
1969 SP EA 1969-04-14 00:00:00 TS -15.29 152.31 554 554 O_____P__OP___ jtwc_sh SH331969 -15.30 152.30 25 -1 -15.29 152.33 998 -15.30 152.30 TC 35 998 -15.28 152.31 1 25 5 170
1969 SP EA 02:00:00 TS -15.47 152.34 999 bom 575 575 P_____O__PP___ SH331969 -15.47 152.33 26 -1 -15.50 152.40 999 -15.50 152.33 TC 33 998 -15.43 152.32 1 26 6 172
1969 SP EA 03:00:00 TS -15.57 152.35 589 589 P_____P__PP___ SH331969 -15.55 152.34 27 -1 -15.61 152.41 999 -15.61 152.34 TC 32 998 -15.51 152.33 1 26 5 174
1969 SP EA 05:00:00 TS -15.74 152.38 999 bom 599 599 P_____O__PP___ SH331969 -15.72 152.38 29 -1 -15.80 152.40 999 -15.81 152.38 TC 30 998 -15.68 152.36 1 27 5 170
1969 SP EA 06:00:00 TS -15.83 152.39 610 610 O_____P__OP___ jtwc_sh SH331969 -15.80 152.40 30 -1 -15.87 152.39 999 -15.90 152.40 TC 30 999 -15.76 152.37 1 27 5 173
1969 SP EA 08:00:00 TS -15.98 152.42 999 bom 613 613 P_____O__PP___ SH331969 -15.97 152.42 30 -1 -16.00 152.40 999 -16.05 152.43 TC 30 999 -15.93 152.41 1 28 5 169
1969 SP EA 09:00:00 TS -16.06 152.43 604 602 P_____P__PP___ SH331969 -16.05 152.44 30 -1 -16.07 152.43 999 -16.11 152.44 TC 30 999 -16.02 152.44 1 29 5 164
1969 SP EA 11:00:00 TS -16.21 152.48 1000 bom 602 593 P_____O__PO___ SH331969 -16.22 152.47 30 -1 -16.20 152.50 1000 -16.24 152.48 TC 30 999 -16.20 152.50 1 30 5 164
1969 SP EA 12:00:00 TS -16.29 152.51 593 585 O_____P__OP___ jtwc_sh SH331969 -16.30 152.50 30 -1 -16.27 152.54 1000 -16.30 152.50 TC 30 1000 -16.27 152.51 1 29 5 163
1969 SP EA 14:00:00 TS -16.43 152.56 1000 bom 592 584 P_____O__PP___ SH331969 -16.46 152.57 28 -1 -16.40 152.60 1000 -16.41 152.53 TC 30 1000 -16.42 152.53 1 27 4 162
1969 SP EA 15:00:00 TS -16.50 152.59 584 576 P_____P__PP___ SH331969 -16.53 152.62 27 -1 -16.46 152.59 1000 -16.46 152.56 TC 30 1000 -16.50 152.55 1 26 5 158
1969 SP EA 17:00:00 TS -16.66 152.66 1000 bom 575 575 P_____O__PP___ SH331969 -16.71 152.73 25 -1 -16.60 152.60 1000 -16.60 152.64 TC 30 1000 -16.67 152.61 1 25 6 152
1969 SP EA 18:00:00 TS -16.76 152.73 567 560 O_____P__OP___ jtwc_sh SH331969 -16.80 152.80 25 -1 -16.72 152.68 1000 -16.70 152.70 TC 30 1000 -16.76 152.66 1 24 7 149
1969 SP EA 20:00:00 TS -16.98 152.86 1000 bom 568 560 P_____O__PP___ SH331969 -16.98 152.88 23 -1 -17.00 152.90 1000 -16.94 152.85 TC 30 1000 -16.98 152.81 1 22 8 149
1969 SP EA 21:00:00 TS -17.10 152.94 560 560 P_____P__PP___ SH331969 -17.08 152.93 22 -1 -17.12 152.98 1000 -17.09 152.95 TC 30 1000 -17.11 152.91 1 21 10 143
1969 SP EA 23:00:00 TS -17.38 153.18 1001 bom 565 565 P_____O__PO___ SH331969 -17.34 153.13 20 -1 -17.40 153.20 1001 -17.42 153.22 TC 30 1000 -17.40 153.20 1 20 12 139
1969 SP EA 1969-04-15 00:00:00 TS -17.55 153.36 570 570 O_____P__OP___ jtwc_sh SH331969 -17.50 153.30 20 -1 -17.59 153.40 1001 -17.60 153.40 TC 30 1001 -17.58 153.42 1 20 18 131
1969 SP EA 02:00:00 TS -17.96 153.87 1001 bom 594 591 P_____O__PP___ SH331969 -17.91 153.83 20 -1 -18.00 153.90 1001 -17.97 153.82 TC 30 1001 -18.00 153.96 1 20 19 129
1969 SP EA 03:00:00 TS -18.17 154.15 594 590 P_____P__PP___ SH331969 -18.15 154.16 20 -1 -18.16 154.12 1001 -18.16 154.06 TC 30 1001 -18.22 154.26 1 20 22 128
1969 SP EA 05:00:00 TS -18.61 154.76 1001 bom 602 594 P_____O__PP___ SH331969 -18.65 154.86 20 -1 -18.50 154.60 1001 -18.58 154.61 TC 30 1001 -18.70 154.90 1 20 23 128
1969 SP EA 06:00:00 TS -18.86 155.09 601 601 O_____P__OP___ jtwc_sh SH331969 -18.90 155.20 20 -1 -18.74 154.90 1001 -18.80 154.90 TC 30 1001 -18.94 155.22 1 20 24 129
1969 SP EA 08:00:00 TS -19.35 155.74 1001 bom 615 615 P_____O__PP___ SH331969 -19.39 155.83 20 -1 -19.30 155.60 1001 -19.27 155.56 TC 28 1001 -19.42 155.86 1 20 24 129
1969 SP EA 09:00:00 TS -19.60 156.07 638 629 P_____P__PP___ SH331969 -19.63 156.13 20 -1 -19.59 156.00 1001 -19.52 155.90 TC 27 1001 -19.65 156.16 1 20 23 130
1969 SP EA 11:00:00 TS -20.07 156.66 1002 bom 630 627 P_____O__PO___ SH331969 -20.09 156.67 20 -1 -20.10 156.70 1002 -19.98 156.54 TC 25 1001 -20.10 156.70 1 20 20 131
1969 SP EA 12:00:00 TS -20.27 156.88 624 616 O_____P__OP___ jtwc_sh SH331969 -20.30 156.90 20 -1 -20.26 156.89 1002 -20.20 156.80 TC 25 1002 -20.31 156.92 1 20 15 136
1969 SP EA 14:00:00 TS -20.62 157.21 1002 bom 616 606 P_____O__PP___ SH331969 -20.67 157.25 20 -1 -20.50 157.10 1002 -20.58 157.19 TC 25 1002 -20.69 157.28 1 21 14 140
1969 SP EA 15:00:00 TS -20.79 157.35 606 596 P_____P__PP___ SH331969 -20.84 157.39 20 -1 -20.66 157.24 1002 -20.74 157.32 TC 25 1002 -20.87 157.42 1 21 12 145
1969 SP EA 17:00:00 TS -21.11 157.57 1002 bom 603 596 P_____O__PP___ SH331969 -21.15 157.60 20 -1 -21.00 157.50 1002 -21.05 157.52 TC 25 1002 -21.20 157.65 1 22 11 148
1969 SP EA 18:00:00 TS -21.26 157.67 596 582 O_____P__OP___ jtwc_sh SH331969 -21.30 157.70 20 -1 -21.16 157.61 1002 -21.20 157.60 TC 25 1002 -21.36 157.73 1 22 11 153
1969 SP EA 20:00:00 NR -21.58 157.83 1002 bom 582 582 ______O___P___ SH331969 -1 -21.50 157.80 1002 TC -21.66 157.86 1 23 11 157
1969 SP EA 21:00:00 NR -21.75 157.89 576 566 ______P___P___ SH331969 -1 -21.69 157.87 1002 TC -21.81 157.91 1 24 11 163
1969 SP EA 23:00:00 NR -22.10 158.00 1003 bom 566 ______O___O___ SH331969 -1 -22.10 158.00 1003 TC -22.10 158.00 1 25 11 165